Time;durP1;ratioP1;P1;durP2;ratioP2;P2;SDS_P1;SDS_P2;PMS_P1;PMS_P2;Temp;Humidity;BMP_temperature;BMP_pressure;BME280_temperature;BME280_humidity;BME280_pressure;Samples;Min_cycle;Max_cycle;Signal;HPM_P1;HPM_P2
2021/07/17 00:01:59;;;;;;;34.83;27.40;;;;;;;;;;5091500;28;20368;-59
2021/07/17 00:04:25;;;;;;;40.20;26.88;;;;;;;;;;5087995;28;20624;-60
2021/07/17 00:06:50;;;;;;;43.10;29.17;;;;;;;;;;5088277;28;20028;-59
2021/07/17 00:09:15;;;;;;;31.23;20.42;;;;;;;;;;5092107;28;20016;-59
2021/07/17 00:11:40;;;;;;;35.90;28.60;;;;;;;;;;5093086;28;20035;-59
2021/07/17 00:14:05;;;;;;;40.78;28.38;;;;;;;;;;5087774;28;20102;-59
2021/07/17 00:16:31;;;;;;;37.22;28.42;;;;;;;;;;5084775;28;20021;-59
2021/07/17 00:18:56;;;;;;;37.35;28.80;;;;;;;;;;5090240;28;20119;-59
2021/07/17 00:21:22;;;;;;;47.03;26.67;;;;;;;;;;5093484;28;20468;-59
2021/07/17 00:23:47;;;;;;;37.22;28.33;;;;;;;;;;5086449;28;20059;-59
2021/07/17 00:26:12;;;;;;;37.72;29.08;;;;;;;;;;5093437;28;20031;-59
2021/07/17 00:28:37;;;;;;;37.10;26.35;;;;;;;;;;5091495;28;20051;-59
2021/07/17 00:31:03;;;;;;;42.28;30.02;;;;;;;;;;5089859;28;20428;-60
2021/07/17 00:33:28;;;;;;;38.42;27.48;;;;;;;;;;5088315;28;20307;-60
2021/07/17 00:35:53;;;;;;;32.55;26.95;;;;;;;;;;5090177;28;20024;-60
2021/07/17 00:38:18;;;;;;;27.87;22.73;;;;;;;;;;5092098;28;20054;-60
2021/07/17 00:40:44;;;;;;;28.00;23.98;;;;;;;;;;5089025;28;20289;-60
2021/07/17 00:43:09;;;;;;;30.05;23.65;;;;;;;;;;5090196;28;20472;-60
2021/07/17 00:45:34;;;;;;;30.55;22.65;;;;;;;;;;5091656;28;20035;-60
2021/07/17 00:47:59;;;;;;;29.67;21.58;;;;;;;;;;5091346;28;20081;-60
2021/07/17 00:50:26;;;;;;;25.03;20.37;;;;;;;;;;5089740;28;20103;-60
2021/07/17 00:52:52;;;;;;;21.83;19.60;;;;;;;;;;5089304;28;20343;-60
2021/07/17 00:55:18;;;;;;;23.60;19.65;;;;;;;;;;5088665;28;20024;-60
2021/07/17 00:57:46;;;;;;;21.02;17.40;;;;;;;;;;5086144;28;20035;-59
2021/07/17 01:00:13;;;;;;;21.58;18.25;;;;;;;;;;5087563;28;20026;-60
2021/07/17 01:02:45;;;;;;;21.70;19.40;;;;;;;;;;5088358;28;20024;-60
2021/07/17 01:05:10;;;;;;;22.00;19.23;;;;;;;;;;5088676;28;20546;-60
2021/07/17 01:07:36;;;;;;;22.95;20.33;;;;;;;;;;5089526;28;20108;-59
2021/07/17 01:10:02;;;;;;;24.13;20.58;;;;;;;;;;5089688;28;20426;-60
2021/07/17 01:12:28;;;;;;;24.75;21.17;;;;;;;;;;5090711;28;20046;-60
2021/07/17 01:14:53;;;;;;;23.15;20.23;;;;;;;;;;5089584;28;20016;-59
2021/07/17 01:17:18;;;;;;;24.63;22.00;;;;;;;;;;5089677;28;20024;-59
2021/07/17 01:19:43;;;;;;;28.75;24.27;;;;;;;;;;5090557;28;20566;-59
2021/07/17 01:22:09;;;;;;;27.83;24.67;;;;;;;;;;5090652;28;20024;-59
2021/07/17 01:24:34;;;;;;;27.55;24.50;;;;;;;;;;5086783;28;20497;-59
2021/07/17 01:26:59;;;;;;;30.95;24.88;;;;;;;;;;5090612;28;20052;-59
2021/07/17 01:29:24;;;;;;;35.20;27.35;;;;;;;;;;5091758;28;20016;-59
2021/07/17 01:31:50;;;;;;;38.35;27.67;;;;;;;;;;5089036;28;20106;-60
2021/07/17 01:34:15;;;;;;;39.40;28.88;;;;;;;;;;5087046;28;20016;-60
2021/07/17 01:36:40;;;;;;;38.80;29.27;;;;;;;;;;5091180;28;20056;-59
2021/07/17 01:39:06;;;;;;;39.97;31.80;;;;;;;;;;5089290;28;20024;-60
2021/07/17 01:41:31;;;;;;;38.92;31.02;;;;;;;;;;5087604;28;20065;-60
2021/07/17 01:43:57;;;;;;;43.50;32.78;;;;;;;;;;5080055;28;20483;-60
2021/07/17 01:46:23;;;;;;;48.33;32.42;;;;;;;;;;5090736;28;20482;-60
2021/07/17 01:48:52;;;;;;;42.95;32.05;;;;;;;;;;5092497;28;20530;-60
2021/07/17 01:51:17;;;;;;;45.58;33.30;;;;;;;;;;5090857;28;20020;-60
2021/07/17 01:53:42;;;;;;;54.65;35.65;;;;;;;;;;5087607;28;20036;-59
2021/07/17 01:56:08;;;;;;;46.30;31.63;;;;;;;;;;5090623;28;20016;-60
2021/07/17 01:58:33;;;;;;;39.47;25.58;;;;;;;;;;5088192;28;20023;-60
2021/07/17 02:00:58;;;;;;;56.30;37.88;;;;;;;;;;5088001;28;20494;-59
2021/07/17 02:03:24;;;;;;;58.45;38.38;;;;;;;;;;5088143;28;20023;-60
2021/07/17 02:05:49;;;;;;;56.60;41.60;;;;;;;;;;5092035;28;20379;-60
2021/07/17 02:08:14;;;;;;;57.63;35.60;;;;;;;;;;5091253;28;20398;-60
2021/07/17 02:10:40;;;;;;;62.88;35.95;;;;;;;;;;5090318;28;20023;-60
2021/07/17 02:13:09;;;;;;;55.08;39.65;;;;;;;;;;5089964;28;20012;-60
2021/07/17 02:15:40;;;;;;;61.38;38.33;;;;;;;;;;5085140;28;20103;-60
2021/07/17 02:18:05;;;;;;;58.20;40.95;;;;;;;;;;5086311;28;20012;-60
2021/07/17 02:20:31;;;;;;;55.40;36.58;;;;;;;;;;5071727;28;20032;-60
2021/07/17 02:22:56;;;;;;;62.15;39.33;;;;;;;;;;5085144;28;20008;-60
2021/07/17 02:25:21;;;;;;;62.45;40.38;;;;;;;;;;5088841;28;20023;-60
2021/07/17 02:27:47;;;;;;;58.97;38.55;;;;;;;;;;5092210;28;20044;-60
2021/07/17 02:30:12;;;;;;;57.80;35.28;;;;;;;;;;5092486;28;20032;-61
2021/07/17 02:32:37;;;;;;;58.67;37.97;;;;;;;;;;5092521;28;20020;-60
2021/07/17 02:35:03;;;;;;;60.60;39.53;;;;;;;;;;5090244;28;20028;-61
2021/07/17 02:37:29;;;;;;;55.97;37.72;;;;;;;;;;5085582;28;20020;-59
2021/07/17 02:39:54;;;;;;;55.50;36.40;;;;;;;;;;5093350;28;20021;-60
2021/07/17 02:42:19;;;;;;;49.97;32.92;;;;;;;;;;5082211;28;20103;-60
2021/07/17 02:44:46;;;;;;;52.20;35.80;;;;;;;;;;5091490;28;20110;-60
2021/07/17 02:47:11;;;;;;;54.25;35.85;;;;;;;;;;5093425;28;20019;-60
2021/07/17 02:49:36;;;;;;;49.38;34.90;;;;;;;;;;5089393;28;20035;-60
2021/07/17 02:52:01;;;;;;;50.47;34.83;;;;;;;;;;5092504;28;20054;-59
2021/07/17 02:54:27;;;;;;;56.15;34.28;;;;;;;;;;5074913;28;20387;-60
2021/07/17 02:56:52;;;;;;;51.58;34.03;;;;;;;;;;5083268;28;20043;-60
2021/07/17 02:59:17;;;;;;;52.13;33.38;;;;;;;;;;5094647;28;20124;-60
2021/07/17 03:01:42;;;;;;;49.03;31.67;;;;;;;;;;5093387;28;20505;-60
2021/07/17 03:04:07;;;;;;;49.70;32.13;;;;;;;;;;5090306;28;20306;-60
2021/07/17 03:06:33;;;;;;;47.15;32.58;;;;;;;;;;5085658;28;20107;-60
2021/07/17 03:08:58;;;;;;;44.28;29.52;;;;;;;;;;5093589;28;20070;-59
2021/07/17 03:11:23;;;;;;;46.72;30.17;;;;;;;;;;5094009;28;20020;-60
2021/07/17 03:13:48;;;;;;;40.88;28.38;;;;;;;;;;5091283;28;20012;-60
2021/07/17 03:16:15;;;;;;;43.28;29.15;;;;;;;;;;5092258;28;20076;-60
2021/07/17 03:18:41;;;;;;;43.40;29.40;;;;;;;;;;5093791;28;20073;-60
2021/07/17 03:21:06;;;;;;;40.60;29.35;;;;;;;;;;5091814;28;20032;-59
2021/07/17 03:23:31;;;;;;;45.70;29.33;;;;;;;;;;5088084;28;20090;-58
2021/07/17 03:25:56;;;;;;;37.17;27.58;;;;;;;;;;5094109;28;20035;-59
2021/07/17 03:28:21;;;;;;;40.60;28.25;;;;;;;;;;5090882;28;20036;-60
2021/07/17 03:30:47;;;;;;;43.58;27.88;;;;;;;;;;5092284;28;20043;-60
2021/07/17 03:33:12;;;;;;;46.17;29.40;;;;;;;;;;5090873;28;20047;-60
2021/07/17 03:35:37;;;;;;;19.75;13.80;;;;;;;;;;5091332;28;20095;-61
2021/07/17 03:38:03;;;;;;;45.80;28.05;;;;;;;;;;5088267;28;20020;-59
2021/07/17 03:40:28;;;;;;;41.67;27.20;;;;;;;;;;5092918;28;20370;-59
2021/07/17 03:42:53;;;;;;;40.30;28.45;;;;;;;;;;5090514;28;20550;-59
2021/07/17 03:45:18;;;;;;;44.83;28.50;;;;;;;;;;5091014;28;20068;-59
2021/07/17 03:47:44;;;;;;;43.90;29.42;;;;;;;;;;5091080;28;20517;-59
2021/07/17 03:50:09;;;;;;;47.15;30.70;;;;;;;;;;5091539;28;20024;-59
2021/07/17 03:52:34;;;;;;;48.55;28.63;;;;;;;;;;5090416;28;20040;-59
2021/07/17 03:55:00;;;;;;;44.47;28.20;;;;;;;;;;5089679;28;20026;-58
2021/07/17 03:57:25;;;;;;;48.00;28.55;;;;;;;;;;5092276;28;20024;-59
2021/07/17 03:59:51;;;;;;;42.53;28.48;;;;;;;;;;5092727;28;20016;-59
2021/07/17 04:02:16;;;;;;;44.55;28.90;;;;;;;;;;5093198;28;20031;-59
2021/07/17 04:04:43;;;;;;;43.55;27.80;;;;;;;;;;5089522;28;20630;-59
2021/07/17 04:07:08;;;;;;;46.47;29.70;;;;;;;;;;5090280;28;20021;-59
2021/07/17 04:09:33;;;;;;;39.25;27.85;;;;;;;;;;5090607;28;20016;-58
2021/07/17 04:11:59;;;;;;;39.33;24.58;;;;;;;;;;5092528;28;20375;-60
2021/07/17 04:14:24;;;;;;;37.25;25.67;;;;;;;;;;5090211;28;20069;-60
2021/07/17 04:16:49;;;;;;;41.92;27.65;;;;;;;;;;5090583;28;20027;-59
2021/07/17 04:19:15;;;;;;;44.67;28.23;;;;;;;;;;5092213;28;20023;-60
2021/07/17 04:21:40;;;;;;;40.97;27.55;;;;;;;;;;5092620;28;20028;-60
2021/07/17 04:24:05;;;;;;;37.60;27.50;;;;;;;;;;5088858;28;20020;-60
2021/07/17 04:26:30;;;;;;;34.17;25.88;;;;;;;;;;5086105;28;20065;-60
2021/07/17 04:28:55;;;;;;;38.35;27.77;;;;;;;;;;5091690;28;20048;-60
2021/07/17 04:31:21;;;;;;;38.45;25.80;;;;;;;;;;5092578;28;20023;-60
2021/07/17 04:33:46;;;;;;;37.95;27.50;;;;;;;;;;5089021;28;20024;-59
2021/07/17 04:36:11;;;;;;;42.75;28.35;;;;;;;;;;5085530;28;20415;-58
2021/07/17 04:38:37;;;;;;;46.30;29.05;;;;;;;;;;5092710;28;20035;-59
2021/07/17 04:41:02;;;;;;;41.50;29.20;;;;;;;;;;5092315;28;20070;-59
2021/07/17 04:43:27;;;;;;;41.45;29.52;;;;;;;;;;5086242;28;20031;-60
2021/07/17 04:45:53;;;;;;;46.05;30.77;;;;;;;;;;5090011;28;20027;-60
2021/07/17 04:48:18;;;;;;;41.00;29.90;;;;;;;;;;5090244;28;20020;-60
2021/07/17 04:50:43;;;;;;;43.53;25.05;;;;;;;;;;5092075;28;20031;-60
2021/07/17 04:53:08;;;;;;;46.25;30.13;;;;;;;;;;5089043;28;20115;-60
2021/07/17 04:55:34;;;;;;;40.13;28.95;;;;;;;;;;5090729;28;20420;-60
2021/07/17 04:57:59;;;;;;;39.72;27.17;;;;;;;;;;5089722;28;20013;-60
2021/07/17 05:00:24;;;;;;;39.45;29.10;;;;;;;;;;5091608;28;20033;-60
2021/07/17 05:02:50;;;;;;;57.00;34.35;;;;;;;;;;5090960;28;20031;-60
2021/07/17 05:05:17;;;;;;;44.65;29.08;;;;;;;;;;5088568;28;20020;-60
2021/07/17 05:07:42;;;;;;;44.88;28.35;;;;;;;;;;5092544;28;20578;-60
2021/07/17 05:10:07;;;;;;;43.88;31.77;;;;;;;;;;5091703;28;20034;-60
2021/07/17 05:12:33;;;;;;;49.33;30.95;;;;;;;;;;5091428;28;20035;-60
2021/07/17 05:14:58;;;;;;;43.70;30.30;;;;;;;;;;5087886;28;20047;-60
2021/07/17 05:17:23;;;;;;;53.83;30.63;;;;;;;;;;5087147;28;20031;-59
2021/07/17 05:19:48;;;;;;;45.70;32.03;;;;;;;;;;5090935;28;20031;-60
2021/07/17 05:22:14;;;;;;;50.92;33.47;;;;;;;;;;5090852;28;20036;-60
2021/07/17 05:24:40;;;;;;;38.10;27.00;;;;;;;;;;5088258;28;20056;-60
2021/07/17 05:27:06;;;;;;;40.13;29.88;;;;;;;;;;5088507;28;20031;-60
2021/07/17 05:29:31;;;;;;;41.83;32.10;;;;;;;;;;5091186;28;20016;-60
2021/07/17 05:31:56;;;;;;;28.02;21.40;;;;;;;;;;5089646;28;20046;-61
2021/07/17 05:34:21;;;;;;;33.47;23.47;;;;;;;;;;5083824;28;20020;-60
2021/07/17 05:36:46;;;;;;;29.58;22.40;;;;;;;;;;5090498;28;20278;-60
2021/07/17 05:39:12;;;;;;;23.80;19.40;;;;;;;;;;5089734;28;20807;-60
2021/07/17 05:41:38;;;;;;;18.30;16.20;;;;;;;;;;5091839;28;20016;-60
2021/07/17 05:44:04;;;;;;;12.43;11.13;;;;;;;;;;5088708;28;20016;-60
2021/07/17 05:46:29;;;;;;;12.77;11.25;;;;;;;;;;5091682;28;20028;-59
2021/07/17 05:48:54;;;;;;;12.75;10.73;;;;;;;;;;5090782;28;20020;-59
2021/07/17 05:51:19;;;;;;;13.47;10.70;;;;;;;;;;5088634;28;20015;-59
2021/07/17 05:53:45;;;;;;;13.77;11.65;;;;;;;;;;5068937;28;20283;-60
2021/07/17 05:56:10;;;;;;;11.50;10.32;;;;;;;;;;5088253;28;20479;-60
2021/07/17 05:58:35;;;;;;;12.07;10.88;;;;;;;;;;5091627;28;20024;-61
2021/07/17 06:01:01;;;;;;;12.60;10.40;;;;;;;;;;5091474;28;20035;-58
2021/07/17 06:03:26;;;;;;;12.00;9.73;;;;;;;;;;5089365;28;20551;-59
2021/07/17 06:05:51;;;;;;;9.57;8.43;;;;;;;;;;5095025;28;20039;-59
2021/07/17 06:08:16;;;;;;;14.60;12.38;;;;;;;;;;5095197;28;20107;-60
2021/07/17 06:10:42;;;;;;;19.13;14.88;;;;;;;;;;5087688;28;20779;-59
2021/07/17 06:13:07;;;;;;;27.00;17.15;;;;;;;;;;5087294;28;20032;-59
2021/07/17 06:15:32;;;;;;;28.08;18.17;;;;;;;;;;5093054;28;20032;-59
2021/07/17 06:17:57;;;;;;;28.17;18.27;;;;;;;;;;5083838;28;20020;-60
2021/07/17 06:20:23;;;;;;;31.67;19.40;;;;;;;;;;5094232;28;20020;-60
2021/07/17 06:22:48;;;;;;;31.70;20.15;;;;;;;;;;5095625;28;20027;-60
2021/07/17 06:25:13;;;;;;;28.55;20.45;;;;;;;;;;5090839;28;20422;-60
2021/07/17 06:27:39;;;;;;;28.73;19.55;;;;;;;;;;5094523;28;20103;-59
2021/07/17 06:30:04;;;;;;;27.88;19.55;;;;;;;;;;5094521;28;20138;-59
2021/07/17 06:32:30;;;;;;;30.35;21.15;;;;;;;;;;5093298;28;20375;-60
2021/07/17 06:34:55;;;;;;;31.27;21.88;;;;;;;;;;5092879;28;20026;-59
2021/07/17 06:37:20;;;;;;;31.27;20.25;;;;;;;;;;5095123;28;20024;-60
2021/07/17 06:39:45;;;;;;;23.80;20.10;;;;;;;;;;5096177;28;20514;-60
2021/07/17 06:42:10;;;;;;;32.88;20.42;;;;;;;;;;5094614;28;20028;-60
2021/07/17 06:44:36;;;;;;;33.10;20.25;;;;;;;;;;5091765;28;20028;-59
2021/07/17 06:47:01;;;;;;;27.95;20.50;;;;;;;;;;5094044;28;20020;-59
2021/07/17 06:49:26;;;;;;;26.25;21.77;;;;;;;;;;5092082;28;20036;-60
2021/07/17 06:51:52;;;;;;;28.15;17.42;;;;;;;;;;5073458;28;20043;-60
2021/07/17 06:54:18;;;;;;;28.85;20.45;;;;;;;;;;5090614;28;20073;-60
2021/07/17 06:56:43;;;;;;;33.35;20.77;;;;;;;;;;5094666;28;20032;-59
2021/07/17 06:59:08;;;;;;;35.13;23.02;;;;;;;;;;5092516;28;20024;-60
2021/07/17 07:01:33;;;;;;;33.45;22.70;;;;;;;;;;5083361;28;20059;-60
2021/07/17 07:03:59;;;;;;;35.42;22.77;;;;;;;;;;5089330;28;20375;-59
2021/07/17 07:06:24;;;;;;;44.15;24.63;;;;;;;;;;5094094;28;20383;-59
2021/07/17 07:08:49;;;;;;;35.38;23.52;;;;;;;;;;5089844;28;20387;-59
2021/07/17 07:11:14;;;;;;;39.03;25.13;;;;;;;;;;5089694;28;20360;-60
2021/07/17 07:13:39;;;;;;;45.20;26.90;;;;;;;;;;5090019;28;20289;-60
2021/07/17 07:16:05;;;;;;;53.38;26.83;;;;;;;;;;5092303;28;20024;-59
2021/07/17 07:18:30;;;;;;;50.95;30.25;;;;;;;;;;5097449;28;20380;-59
2021/07/17 07:20:56;;;;;;;68.20;32.33;;;;;;;;;;5084980;28;20166;-60
2021/07/17 07:23:21;;;;;;;73.30;29.55;;;;;;;;;;5085355;28;20065;-58
2021/07/17 07:25:46;;;;;;;58.97;32.40;;;;;;;;;;5086408;28;20033;-59
2021/07/17 07:28:11;;;;;;;64.90;33.72;;;;;;;;;;5085113;28;20247;-60
2021/07/17 07:30:36;;;;;;;71.00;34.90;;;;;;;;;;5087158;28;20024;-60
2021/07/17 07:33:02;;;;;;;72.05;34.13;;;;;;;;;;5084412;28;20467;-59
2021/07/17 07:35:27;;;;;;;117.05;36.13;;;;;;;;;;5084609;28;20031;-60
2021/07/17 07:37:53;;;;;;;93.85;32.38;;;;;;;;;;5092312;28;20016;-60
2021/07/17 07:40:20;;;;;;;69.25;31.23;;;;;;;;;;5094060;28;20356;-60
2021/07/17 07:42:45;;;;;;;94.10;33.85;;;;;;;;;;5091153;28;20387;-60
2021/07/17 07:45:11;;;;;;;92.93;28.65;;;;;;;;;;5084323;28;20021;-60
2021/07/17 07:47:36;;;;;;;58.17;32.95;;;;;;;;;;5089816;28;20020;-60
2021/07/17 07:50:03;;;;;;;66.93;31.75;;;;;;;;;;5091682;28;20433;-59
2021/07/17 07:52:28;;;;;;;50.58;32.38;;;;;;;;;;5091072;28;20044;-60
2021/07/17 07:54:53;;;;;;;87.82;32.53;;;;;;;;;;5082067;28;20027;-60
2021/07/17 07:57:18;;;;;;;76.47;31.95;;;;;;;;;;5091433;28;20035;-59
2021/07/17 07:59:44;;;;;;;80.10;31.73;;;;;;;;;;5091463;28;20016;-60
2021/07/17 08:02:09;;;;;;;56.78;32.33;;;;;;;;;;5089528;28;20031;-60
2021/07/17 08:04:35;;;;;;;74.20;32.00;;;;;;;;;;5088128;28;21280;-61
2021/07/17 08:07:00;;;;;;;36.15;23.00;;;;;;;;;;5091656;28;20028;-59
2021/07/17 08:09:25;;;;;;;36.58;25.83;;;;;;;;;;5089602;28;20077;-59
2021/07/17 08:11:50;;;;;;;41.15;28.55;;;;;;;;;;5092010;28;20016;-59
2021/07/17 08:14:15;;;;;;;31.63;24.95;;;;;;;;;;5071043;28;20020;-60
2021/07/17 08:16:41;;;;;;;39.88;24.42;;;;;;;;;;5088688;28;20024;-59
2021/07/17 08:19:06;;;;;;;39.47;23.13;;;;;;;;;;5092566;28;20050;-61
2021/07/17 08:21:31;;;;;;;35.17;24.42;;;;;;;;;;5093465;28;20049;-61
2021/07/17 08:23:56;;;;;;;39.83;22.45;;;;;;;;;;5087803;28;20401;-61
2021/07/17 08:26:22;;;;;;;25.70;19.83;;;;;;;;;;5090331;28;20374;-61
2021/07/17 08:28:47;;;;;;;26.05;17.55;;;;;;;;;;5092112;28;20020;-61
2021/07/17 08:31:12;;;;;;;24.48;17.75;;;;;;;;;;5092589;28;20027;-62
2021/07/17 08:33:37;;;;;;;15.05;12.73;;;;;;;;;;5091366;28;20015;-61
2021/07/17 08:36:03;;;;;;;15.15;12.52;;;;;;;;;;5090672;28;20035;-61
2021/07/17 08:38:28;;;;;;;12.25;10.55;;;;;;;;;;5091601;28;20020;-61
2021/07/17 08:40:54;;;;;;;11.82;10.63;;;;;;;;;;5091693;28;20094;-61
2021/07/17 08:43:20;;;;;;;12.68;9.85;;;;;;;;;;5084417;28;20436;-60
2021/07/17 08:45:46;;;;;;;11.48;10.23;;;;;;;;;;5083062;28;20020;-59
2021/07/17 08:48:12;;;;;;;19.20;12.80;;;;;;;;;;5083565;28;20016;-60
2021/07/17 08:50:37;;;;;;;18.73;13.40;;;;;;;;;;5086842;28;20019;-61
2021/07/17 08:53:03;;;;;;;54.50;17.13;;;;;;;;;;5081440;28;20078;-61
2021/07/17 08:55:28;;;;;;;25.85;13.10;;;;;;;;;;5085927;28;20425;-61
2021/07/17 08:57:53;;;;;;;15.68;12.00;;;;;;;;;;5090894;28;20028;-60
2021/07/17 09:00:24;;;;;;;16.80;14.90;;;;;;;;;;5090125;28;20421;-61
2021/07/17 09:02:50;;;;;;;15.43;13.05;;;;;;;;;;5090937;28;20020;-61
2021/07/17 09:05:17;;;;;;;15.02;12.52;;;;;;;;;;5086548;28;20028;-61
2021/07/17 09:07:42;;;;;;;12.02;10.75;;;;;;;;;;5089697;28;20116;-61
2021/07/17 09:10:25;;;;;;;11.48;10.32;;;;;;;;;;5089537;28;20475;-61
2021/07/17 09:13:05;;;;;;;10.60;9.57;;;;;;;;;;5092489;28;20347;-59
2021/07/17 09:15:30;;;;;;;11.80;10.40;;;;;;;;;;5089737;28;20099;-60
2021/07/17 09:17:55;;;;;;;11.05;9.85;;;;;;;;;;5091332;28;20103;-60
2021/07/17 09:20:20;;;;;;;12.47;11.17;;;;;;;;;;5092357;28;20032;-59
2021/07/17 09:22:55;;;;;;;13.55;12.18;;;;;;;;;;5089989;28;20320;-59
2021/07/17 09:25:21;;;;;;;13.77;11.55;;;;;;;;;;5087669;28;20032;-60
2021/07/17 09:27:46;;;;;;;22.95;13.65;;;;;;;;;;5085021;28;20027;-59
2021/07/17 09:30:26;;;;;;;33.58;15.85;;;;;;;;;;5082154;28;20017;-60
2021/07/17 09:32:58;;;;;;;19.92;15.95;;;;;;;;;;5089810;28;20077;-59
2021/07/17 09:35:24;;;;;;;18.83;14.68;;;;;;;;;;5075388;28;20425;-59
2021/07/17 09:37:56;;;;;;;16.92;14.85;;;;;;;;;;5086947;28;20024;-59
2021/07/17 09:40:24;;;;;;;16.20;14.10;;;;;;;;;;5091448;28;20043;-60
2021/07/17 09:42:50;;;;;;;15.98;14.27;;;;;;;;;;5095301;28;20026;-60
2021/07/17 09:45:53;;;;;;;17.08;14.15;;;;;;;;;;5093316;28;20098;-59
2021/07/17 09:48:18;;;;;;;17.00;14.52;;;;;;;;;;5065962;28;20171;-59
2021/07/17 09:50:44;;;;;;;19.47;16.83;;;;;;;;;;5070107;28;20024;-59
2021/07/17 09:53:09;;;;;;;17.58;15.70;;;;;;;;;;5070883;28;20859;-60
2021/07/17 09:55:34;;;;;;;19.37;15.03;;;;;;;;;;5071842;28;20443;-59
2021/07/17 09:58:08;;;;;;;16.35;14.50;;;;;;;;;;5065329;28;20275;-60
2021/07/17 10:00:33;;;;;;;15.90;13.82;;;;;;;;;;5042093;28;20045;-59
2021/07/17 10:03:02;;;;;;;19.60;16.00;;;;;;;;;;5071587;28;20103;-60
2021/07/17 10:05:37;;;;;;;19.23;15.35;;;;;;;;;;5064309;28;20040;-60
2021/07/17 10:08:15;;;;;;;20.15;16.13;;;;;;;;;;5065887;28;20112;-60
2021/07/17 10:10:41;;;;;;;18.65;13.45;;;;;;;;;;5072758;28;20044;-61
2021/07/17 10:13:06;;;;;;;21.00;16.25;;;;;;;;;;5070067;28;20060;-59
2021/07/17 10:15:32;;;;;;;18.52;15.57;;;;;;;;;;5072157;28;20024;-59
2021/07/17 10:18:23;;;;;;;20.08;16.48;;;;;;;;;;5068374;28;20435;-60
2021/07/17 10:20:49;;;;;;;16.92;14.00;;;;;;;;;;5087433;28;20082;-60
2021/07/17 10:23:14;;;;;;;17.10;14.85;;;;;;;;;;5092050;28;20016;-61
2021/07/17 10:25:39;;;;;;;16.33;13.00;;;;;;;;;;5092491;28;20016;-60
2021/07/17 10:28:05;;;;;;;16.70;13.02;;;;;;;;;;5093278;28;20024;-61
2021/07/17 10:30:30;;;;;;;15.60;13.25;;;;;;;;;;5089301;28;20031;-60
2021/07/17 10:32:56;;;;;;;20.05;15.15;;;;;;;;;;5089784;28;20024;-59
2021/07/17 10:35:22;;;;;;;15.20;12.35;;;;;;;;;;5089690;28;20428;-59
2021/07/17 10:37:48;;;;;;;22.40;14.10;;;;;;;;;;5089870;28;20031;-60
2021/07/17 10:40:17;;;;;;;16.73;13.02;;;;;;;;;;5087168;28;20479;-60
2021/07/17 10:42:50;;;;;;;15.05;13.38;;;;;;;;;;5085682;28;20029;-60
2021/07/17 10:45:37;;;;;;;17.92;12.82;;;;;;;;;;5071594;28;20158;-59
2021/07/17 10:48:21;;;;;;;15.82;12.70;;;;;;;;;;5081609;28;20074;-60
2021/07/17 10:50:46;;;;;;;10.98;8.88;;;;;;;;;;5092798;28;20020;-60
2021/07/17 10:53:30;;;;;;;12.80;11.10;;;;;;;;;;5077330;28;20128;-60
2021/07/17 10:55:55;;;;;;;13.55;7.38;;;;;;;;;;5078482;28;20266;-60
2021/07/17 10:58:23;;;;;;;13.07;11.38;;;;;;;;;;5091231;28;20062;-60
2021/07/17 11:00:49;;;;;;;16.75;12.60;;;;;;;;;;5082555;28;20023;-60
2021/07/17 11:03:19;;;;;;;16.10;12.65;;;;;;;;;;5090247;28;20418;-60
2021/07/17 11:05:44;;;;;;;15.77;12.27;;;;;;;;;;5086756;28;20040;-60
2021/07/17 11:08:28;;;;;;;18.98;15.05;;;;;;;;;;5094555;28;20426;-60
2021/07/17 11:10:53;;;;;;;17.10;15.02;;;;;;;;;;5093597;28;20026;-60
2021/07/17 11:13:29;;;;;;;16.77;12.60;;;;;;;;;;5090068;28;20118;-59
2021/07/17 11:15:54;;;;;;;14.52;11.02;;;;;;;;;;5094113;28;20028;-58
2021/07/17 11:18:20;;;;;;;14.40;11.30;;;;;;;;;;5093926;28;20023;-60
2021/07/17 11:20:45;;;;;;;16.52;13.00;;;;;;;;;;5089843;28;20368;-59
2021/07/17 11:23:13;;;;;;;15.18;11.95;;;;;;;;;;5090695;28;20012;-58
2021/07/17 11:25:50;;;;;;;14.63;11.52;;;;;;;;;;5074382;28;20115;-59
2021/07/17 11:28:35;;;;;;;13.93;12.10;;;;;;;;;;5087746;28;20023;-58
2021/07/17 11:31:20;;;;;;;15.35;12.30;;;;;;;;;;5087679;28;20020;-59
2021/07/17 11:33:46;;;;;;;16.25;12.85;;;;;;;;;;5091142;28;20027;-58
2021/07/17 11:36:24;;;;;;;13.63;10.77;;;;;;;;;;5094139;28;20012;-59
2021/07/17 11:38:50;;;;;;;14.57;10.38;;;;;;;;;;5094550;28;20051;-59
2021/07/17 11:41:15;;;;;;;18.65;13.80;;;;;;;;;;5093722;28;20047;-59
2021/07/17 11:43:40;;;;;;;17.92;14.32;;;;;;;;;;5089874;28;20162;-59
2021/07/17 11:46:05;;;;;;;18.10;13.75;;;;;;;;;;5088693;28;20115;-59
2021/07/17 11:48:30;;;;;;;20.02;14.45;;;;;;;;;;5078461;28;20096;-58
2021/07/17 11:51:00;;;;;;;19.25;15.25;;;;;;;;;;5093508;28;20035;-58
2021/07/17 11:53:25;;;;;;;17.10;13.23;;;;;;;;;;5088728;28;20079;-58
2021/07/17 11:55:58;;;;;;;19.08;14.68;;;;;;;;;;5084141;28;20051;-58
2021/07/17 11:58:23;;;;;;;21.05;14.27;;;;;;;;;;5073312;28;20044;-58
2021/07/17 12:00:59;;;;;;;18.85;15.00;;;;;;;;;;5075207;28;20016;-59
2021/07/17 12:03:24;;;;;;;21.42;16.05;;;;;;;;;;5079365;28;20192;-58
2021/07/17 12:05:49;;;;;;;21.15;15.65;;;;;;;;;;5085780;28;20019;-58
2021/07/17 12:08:20;;;;;;;20.23;16.13;;;;;;;;;;5091141;28;20027;-58
2021/07/17 12:10:45;;;;;;;22.13;16.08;;;;;;;;;;5093110;28;20116;-59
2021/07/17 12:13:11;;;;;;;20.55;14.90;;;;;;;;;;5085785;28;20090;-59
2021/07/17 12:15:37;;;;;;;24.50;17.33;;;;;;;;;;5092579;28;20077;-59
2021/07/17 12:18:04;;;;;;;26.55;17.60;;;;;;;;;;5089120;28;20353;-59
2021/07/17 12:20:34;;;;;;;21.10;15.35;;;;;;;;;;5089739;28;20137;-58
2021/07/17 12:23:02;;;;;;;28.20;18.33;;;;;;;;;;5087070;28;20103;-58
2021/07/17 12:25:31;;;;;;;23.70;17.20;;;;;;;;;;5091815;28;20024;-58
2021/07/17 12:27:58;;;;;;;24.63;17.98;;;;;;;;;;5088560;28;20020;-58
2021/07/17 12:30:24;;;;;;;24.83;17.35;;;;;;;;;;5088321;28;20016;-59
2021/07/17 12:32:49;;;;;;;19.60;15.25;;;;;;;;;;5075953;28;20025;-59
2021/07/17 12:35:21;;;;;;;18.92;13.63;;;;;;;;;;5088879;28;20031;-58
2021/07/17 12:37:46;;;;;;;20.42;15.38;;;;;;;;;;5091440;28;20016;-59
2021/07/17 12:40:12;;;;;;;23.70;16.60;;;;;;;;;;5091824;28;20103;-59
2021/07/17 12:42:55;;;;;;;20.35;14.73;;;;;;;;;;5092896;28;20590;-58
2021/07/17 12:45:21;;;;;;;24.48;16.30;;;;;;;;;;5089679;28;20027;-58
2021/07/17 12:47:49;;;;;;;21.50;15.95;;;;;;;;;;5080948;28;20537;-59
2021/07/17 12:50:18;;;;;;;21.55;14.68;;;;;;;;;;5075285;28;20056;-58
2021/07/17 12:52:43;;;;;;;21.42;15.75;;;;;;;;;;5085541;28;20126;-58
2021/07/17 12:55:08;;;;;;;16.92;14.55;;;;;;;;;;5089141;28;20432;-58
2021/07/17 12:57:34;;;;;;;20.75;13.40;;;;;;;;;;5092530;28;20580;-59
2021/07/17 12:59:59;;;;;;;18.77;12.48;;;;;;;;;;5091868;28;20447;-59
2021/07/17 13:02:27;;;;;;;17.75;13.23;;;;;;;;;;5090915;28;20055;-58
2021/07/17 13:04:53;;;;;;;17.08;13.25;;;;;;;;;;5087656;28;20024;-58
2021/07/17 13:07:32;;;;;;;17.73;11.68;;;;;;;;;;5092478;28;20387;-58
2021/07/17 13:09:58;;;;;;;12.13;8.82;;;;;;;;;;5091714;28;20383;-59
2021/07/17 13:12:24;;;;;;;12.68;10.40;;;;;;;;;;5091291;28;20012;-59
2021/07/17 13:14:50;;;;;;;13.00;8.30;;;;;;;;;;5088661;28;20417;-59
2021/07/17 13:17:19;;;;;;;11.02;8.63;;;;;;;;;;5091648;28;20112;-59
2021/07/17 13:19:45;;;;;;;10.07;8.27;;;;;;;;;;5090244;28;20039;-57
2021/07/17 13:22:12;;;;;;;9.13;6.88;;;;;;;;;;5072762;28;20020;-58
2021/07/17 13:24:40;;;;;;;7.05;6.32;;;;;;;;;;5069272;28;20029;-58
2021/07/17 13:27:05;;;;;;;6.90;5.88;;;;;;;;;;5091750;28;20390;-58
2021/07/17 13:29:30;;;;;;;7.57;5.95;;;;;;;;;;5090412;28;20016;-58
2021/07/17 13:32:00;;;;;;;6.70;4.68;;;;;;;;;;5088154;28;20013;-59
2021/07/17 13:34:27;;;;;;;5.22;3.92;;;;;;;;;;5089328;28;20016;-57
2021/07/17 13:36:52;;;;;;;4.90;4.10;;;;;;;;;;5092186;28;20020;-59
2021/07/17 13:39:17;;;;;;;7.10;4.77;;;;;;;;;;5090484;28;20364;-59
2021/07/17 13:41:42;;;;;;;7.75;5.75;;;;;;;;;;5091717;28;20274;-58
2021/07/17 13:44:11;;;;;;;8.30;5.82;;;;;;;;;;5088840;28;20027;-59
2021/07/17 13:46:36;;;;;;;10.55;7.30;;;;;;;;;;5092163;28;20015;-59
2021/07/17 13:49:15;;;;;;;13.03;8.83;;;;;;;;;;5090083;28;20421;-58
2021/07/17 13:51:40;;;;;;;14.48;8.93;;;;;;;;;;5086806;28;20315;-58
2021/07/17 13:54:06;;;;;;;21.02;12.45;;;;;;;;;;5085888;28;20566;-59
2021/07/17 13:56:32;;;;;;;19.80;13.40;;;;;;;;;;5074713;28;20025;-59
2021/07/17 13:59:01;;;;;;;31.55;17.58;;;;;;;;;;5086455;28;20146;-58
2021/07/17 14:01:29;;;;;;;32.25;15.48;;;;;;;;;;5091289;28;20501;-59
2021/07/17 14:03:54;;;;;;;41.45;21.30;;;;;;;;;;5088882;28;20035;-59
2021/07/17 14:06:21;;;;;;;58.13;22.23;;;;;;;;;;5091660;28;20016;-59
2021/07/17 14:08:46;;;;;;;37.78;22.52;;;;;;;;;;5091312;28;20258;-58
2021/07/17 14:11:12;;;;;;;46.47;18.42;;;;;;;;;;5090822;28;20062;-60
2021/07/17 14:13:38;;;;;;;45.20;23.30;;;;;;;;;;5084569;28;20495;-59
2021/07/17 14:16:04;;;;;;;49.28;23.52;;;;;;;;;;5086810;28;20016;-59